METAR Data
IDs: Format: Raw Decoded Include TAF

Data at: 1402 UTC 19 Aug 2019

KELA 191355Z AUTO 00000KT 10SM SCT016 SCT022 SCT026 29/27 A3000 RMK AO2 T02930273